sensor_id;sensor_type;location;lat;lon;timestamp;temperature;humidity
51486;DHT22;37565;51.352;6.412;2022-12-07T12:05:13;18.80;99.30
51486;DHT22;37565;51.352;6.412;2022-12-07T12:07:44;18.90;99.50
51486;DHT22;37565;51.352;6.412;2022-12-07T12:10:42;18.90;99.20
51486;DHT22;37565;51.352;6.412;2022-12-07T12:16:53;18.90;99.20
51486;DHT22;37565;51.352;6.412;2022-12-07T12:19:33;18.90;98.90
51486;DHT22;37565;51.352;6.412;2022-12-07T12:22:10;18.90;99.20
51486;DHT22;37565;51.352;6.412;2022-12-07T12:24:41;18.90;99.10
51486;DHT22;37565;51.352;6.412;2022-12-07T12:27:21;18.90;99.20
51486;DHT22;37565;51.352;6.412;2022-12-07T12:29:53;18.90;99.00
51486;DHT22;37565;51.352;6.412;2022-12-07T12:32:28;18.90;99.50
51486;DHT22;37565;51.352;6.412;2022-12-07T12:35:03;18.80;99.50
51486;DHT22;37565;51.352;6.412;2022-12-07T12:37:52;18.80;99.80
51486;DHT22;37565;51.352;6.412;2022-12-07T12:40:43;18.70;99.90
51486;DHT22;37565;51.352;6.412;2022-12-07T12:43:50;18.70;99.90
51486;DHT22;37565;51.352;6.412;2022-12-07T12:46:47;18.60;99.90
51486;DHT22;37565;51.352;6.412;2022-12-07T12:49:43;18.60;99.90
51486;DHT22;37565;51.352;6.412;2022-12-07T12:55:00;18.80;99.90
51486;DHT22;37565;51.352;6.412;2022-12-07T12:57:31;18.80;99.90
51486;DHT22;37565;51.352;6.412;2022-12-07T22:22:18;20.00;99.90
51486;DHT22;37565;51.352;6.412;2022-12-07T22:24:46;18.70;99.90
51486;DHT22;37565;51.352;6.412;2022-12-07T22:27:14;18.80;99.90
51486;DHT22;37565;51.352;6.412;2022-12-07T22:29:43;18.80;99.90
51486;DHT22;37565;51.352;6.412;2022-12-07T22:32:10;18.90;99.90
51486;DHT22;37565;51.352;6.412;2022-12-07T22:34:58;18.90;99.90
51486;DHT22;37565;51.352;6.412;2022-12-07T22:37:29;18.90;99.90
51486;DHT22;37565;51.352;6.412;2022-12-07T22:39:57;18.90;99.90
51486;DHT22;37565;51.352;6.412;2022-12-07T22:42:25;19.00;99.90
51486;DHT22;37565;51.352;6.412;2022-12-07T22:44:53;18.90;99.90
51486;DHT22;37565;51.352;6.412;2022-12-07T22:47:21;18.90;99.90
51486;DHT22;37565;51.352;6.412;2022-12-07T22:49:49;18.90;99.90
51486;DHT22;37565;51.352;6.412;2022-12-07T22:52:18;19.00;99.90
51486;DHT22;37565;51.352;6.412;2022-12-07T22:54:47;18.90;99.90
51486;DHT22;37565;51.352;6.412;2022-12-07T22:57:15;18.90;99.90
51486;DHT22;37565;51.352;6.412;2022-12-07T22:59:43;18.90;99.90
51486;DHT22;37565;51.352;6.412;2022-12-07T23:02:11;18.90;99.90
51486;DHT22;37565;51.352;6.412;2022-12-07T23:04:39;19.00;99.90
51486;DHT22;37565;51.352;6.412;2022-12-07T23:07:07;18.90;99.90
51486;DHT22;37565;51.352;6.412;2022-12-07T23:09:35;18.90;99.90
51486;DHT22;37565;51.352;6.412;2022-12-07T23:12:05;18.90;99.90
51486;DHT22;37565;51.352;6.412;2022-12-07T23:14:50;18.90;99.90
51486;DHT22;37565;51.352;6.412;2022-12-07T23:17:19;18.90;99.90
51486;DHT22;37565;51.352;6.412;2022-12-07T23:19:47;18.90;99.90
51486;DHT22;37565;51.352;6.412;2022-12-07T23:22:21;18.90;99.90
51486;DHT22;37565;51.352;6.412;2022-12-07T23:24:49;19.00;99.90
51486;DHT22;37565;51.352;6.412;2022-12-07T23:27:18;18.90;99.90
51486;DHT22;37565;51.352;6.412;2022-12-07T23:29:46;19.00;99.90
51486;DHT22;37565;51.352;6.412;2022-12-07T23:32:14;19.00;99.90
51486;DHT22;37565;51.352;6.412;2022-12-07T23:34:42;18.90;99.90
51486;DHT22;37565;51.352;6.412;2022-12-07T23:37:10;18.90;99.90
51486;DHT22;37565;51.352;6.412;2022-12-07T23:39:38;18.90;99.90
51486;DHT22;37565;51.352;6.412;2022-12-07T23:42:06;18.90;99.90
51486;DHT22;37565;51.352;6.412;2022-12-07T23:44:35;18.90;99.90
51486;DHT22;37565;51.352;6.412;2022-12-07T23:47:03;18.90;99.90
51486;DHT22;37565;51.352;6.412;2022-12-07T23:49:31;18.90;99.90
51486;DHT22;37565;51.352;6.412;2022-12-07T23:51:59;18.90;99.80
51486;DHT22;37565;51.352;6.412;2022-12-07T23:54:27;18.90;99.80
51486;DHT22;37565;51.352;6.412;2022-12-07T23:56:55;18.90;99.70
51486;DHT22;37565;51.352;6.412;2022-12-07T23:59:23;18.90;99.80
